Time;durP1;ratioP1;P1;durP2;ratioP2;P2;SDS_P1;SDS_P2;PMS_P1;PMS_P2;Temp;Humidity;BMP_temperature;BMP_pressure;BME280_temperature;BME280_humidity;BME280_pressure;Samples;Min_cycle;Max_cycle;Signal;HPM_P1;HPM_P2
2022/12/11 00:00:04;;;;;;;;;19.25;17.75;;;;;3.09;100.00;101129.13;4913691;28;49978;-74
2022/12/11 00:02:29;;;;;;;;;22.50;21.25;;;;;2.73;100.00;101079.53;4913892;28;50050;-70
2022/12/11 00:04:55;;;;;;;;;22.25;17.75;;;;;2.83;100.00;101107.78;4913505;28;49810;-70
2022/12/11 00:07:20;;;;;;;;;23.25;19.00;;;;;2.98;100.00;101157.00;4913048;28;49932;-73
2022/12/11 00:09:45;;;;;;;;;20.00;20.00;;;;;2.96;100.00;101129.22;4928095;28;49959;-73
2022/12/11 00:12:11;;;;;;;;;25.00;23.00;;;;;2.86;100.00;101104.44;4913450;28;49727;-70
2022/12/11 00:14:36;;;;;;;;;22.75;20.25;;;;;2.84;100.00;101099.19;4913377;28;50695;-73
2022/12/11 00:17:01;;;;;;;;;23.75;20.75;;;;;2.68;100.00;101068.00;4912401;28;49909;-72
2022/12/11 00:19:27;;;;;;;;;24.50;22.75;;;;;2.90;100.00;101098.66;4912118;28;49795;-68
2022/12/11 00:21:52;;;;;;;;;26.00;20.50;;;;;2.97;100.00;101099.88;4912495;28;49906;-69
2022/12/11 00:24:18;;;;;;;;;25.00;20.00;;;;;2.95;100.00;101096.31;4913235;28;50751;-72
2022/12/11 00:26:43;;;;;;;;;25.00;19.75;;;;;2.61;100.00;101021.81;4913132;28;49834;-73
2022/12/11 00:29:13;;;;;;;;;22.75;19.25;;;;;2.77;100.00;101050.38;4913246;28;49762;-73
2022/12/11 00:31:39;;;;;;;;;25.50;21.25;;;;;3.01;100.00;101088.88;4913413;28;49713;-72
2022/12/11 00:34:05;;;;;;;;;20.50;19.75;;;;;2.69;100.00;101059.41;4913021;28;50817;-73
2022/12/11 00:36:30;;;;;;;;;19.25;17.25;;;;;3.01;100.00;101084.59;4913009;28;49747;-73
2022/12/11 00:38:55;;;;;;;;;27.75;20.25;;;;;2.69;100.00;101025.72;4913258;28;49833;-71
2022/12/11 00:41:21;;;;;;;;;23.75;16.00;;;;;2.90;100.00;101064.06;4913241;28;49779;-72
2022/12/11 00:43:46;;;;;;;;;27.25;22.75;;;;;2.78;100.00;101028.81;4912880;28;49963;-68
2022/12/11 00:46:12;;;;;;;;;16.50;16.50;;;;;3.14;100.00;101080.97;4912933;28;49860;-68
2022/12/11 00:48:38;;;;;;;;;24.25;19.00;;;;;2.61;100.00;100982.94;4912906;28;49831;-68
2022/12/11 00:51:04;;;;;;;;;22.50;17.00;;;;;3.14;100.00;101078.38;4912989;28;49743;-68
2022/12/11 00:53:30;;;;;;;;;23.25;19.75;;;;;2.95;100.00;101040.13;4912857;28;50055;-70
2022/12/11 00:55:56;;;;;;;;;24.25;21.50;;;;;2.74;100.00;100995.78;4913009;28;49787;-71
2022/12/11 00:58:22;;;;;;;;;21.75;19.25;;;;;3.13;100.00;101053.25;4912803;28;49937;-71
2022/12/11 01:00:48;;;;;;;;;20.50;19.00;;;;;3.11;100.00;101053.16;4927649;28;50132;-72
2022/12/11 01:03:15;;;;;;;;;31.00;26.00;;;;;2.99;100.00;101030.81;4912409;28;49712;-68
2022/12/11 01:05:41;;;;;;;;;23.50;22.25;;;;;3.12;100.00;101062.72;4912700;28;50050;-70
2022/12/11 01:08:06;;;;;;;;;23.50;21.25;;;;;3.09;100.00;101070.34;4912731;28;49843;-69
2022/12/11 01:10:32;;;;;;;;;25.25;23.75;;;;;2.35;100.00;100936.53;4915644;28;50014;-70
2022/12/11 10:07:13;;;;;;;;;41.75;33.75;;;;;3.46;86.36;100976.31;5640335;23;49962;-71
2022/12/11 10:10:00;;;;;;;;;36.75;28.75;;;;;3.41;85.63;100959.63;4905172;28;49855;-71
2022/12/11 10:12:41;;;;;;;;;43.50;33.00;;;;;3.15;85.10;100903.75;4900586;28;49799;-73
2022/12/11 10:15:30;;;;;;;;;39.25;30.00;;;;;3.39;84.76;100937.88;4904419;28;50075;-68
2022/12/11 10:17:58;;;;;;;;;49.75;40.50;;;;;1.95;84.09;100670.19;4909997;28;49950;-68
2022/12/11 10:20:38;;;;;;;;;33.25;29.75;;;;;3.70;84.17;100962.00;4905440;28;49796;-70
2022/12/11 10:23:06;;;;;;;;;42.75;38.75;;;;;3.76;83.24;100965.72;4909194;28;49903;-62
2022/12/11 10:25:39;;;;;;;;;30.00;28.50;;;;;3.43;82.53;100924.25;4911144;28;49854;-62
2022/12/11 10:28:16;;;;;;;;;32.00;28.75;;;;;3.57;82.04;100957.03;4905068;28;50490;-61
2022/12/11 10:30:56;;;;;;;;;43.50;35.75;;;;;3.27;82.07;100903.50;4911385;28;50059;-61
2022/12/11 10:33:46;;;;;;;;;26.25;24.00;;;;;3.13;82.43;100884.63;4905906;28;49728;-67
2022/12/11 10:36:17;;;;;;;;;32.00;30.00;;;;;3.57;82.51;100945.72;4895156;28;50068;-65
2022/12/11 10:38:45;;;;;;;;;31.00;22.75;;;;;3.16;82.68;100877.00;4910180;28;51122;-68
2022/12/11 10:41:17;;;;;;;;;38.00;33.50;;;;;3.57;82.69;100936.25;4897417;28;49657;-63
2022/12/11 10:43:52;;;;;;;;;29.75;26.75;;;;;3.67;83.45;100928.13;4894637;28;50098;-63
2022/12/11 10:46:27;;;;;;;;;29.00;27.50;;;;;3.47;82.92;100882.06;4894448;28;50324;-67
2022/12/11 10:49:00;;;;;;;;;29.75;25.75;;;;;3.53;82.37;100872.00;4893566;28;49988;-63
2022/12/11 10:51:31;;;;;;;;;33.50;27.25;;;;;3.96;82.26;100924.38;4907709;28;49846;-63
2022/12/11 10:54:05;;;;;;;;;36.75;31.75;;;;;3.70;81.77;100878.03;4916833;28;49710;-79
2022/12/11 10:56:32;;;;;;;;;42.50;36.00;;;;;3.51;81.41;100849.38;4915221;28;49971;-73
2022/12/11 10:59:00;;;;;;;;;31.25;27.25;;;;;3.37;80.75;100826.19;4923125;28;50452;-64
2022/12/11 11:01:31;;;;;;;;;35.75;28.50;;;;;3.68;80.54;100879.69;4913849;28;49838;-63
2022/12/11 11:04:13;;;;;;;;;28.25;27.00;;;;;3.92;81.11;100935.41;4914119;28;50030;-63
2022/12/11 11:06:39;;;;;;;;;32.00;30.00;;;;;3.66;80.26;100876.97;4912850;28;49928;-65
2022/12/11 11:09:29;;;;;;;;;24.75;23.50;;;;;3.82;80.76;100904.63;4911169;28;50013;-65
2022/12/11 11:11:54;;;;;;;;;33.25;28.50;;;;;3.34;81.35;100851.13;4913778;28;49800;-64
2022/12/11 11:14:24;;;;;;;;;43.25;31.75;;;;;3.61;80.70;100852.50;4913376;28;50027;-66
2022/12/11 11:16:53;;;;;;;;;33.25;29.75;;;;;3.90;80.96;100895.50;4914124;28;49740;-64
2022/12/11 11:19:22;;;;;;;;;30.50;25.25;;;;;3.91;79.96;100897.28;4913719;28;49901;-64
2022/12/11 11:21:55;;;;;;;;;32.25;27.50;;;;;3.76;80.36;100865.34;4901101;28;49818;-63
2022/12/11 11:24:26;;;;;;;;;27.50;27.00;;;;;3.90;79.80;100897.22;4908160;28;49969;-62
2022/12/11 11:26:52;;;;;;;;;26.75;26.50;;;;;3.93;80.45;100898.25;4913677;28;49609;-62
2022/12/11 11:29:36;;;;;;;;;25.00;22.50;;;;;3.79;79.20;100875.91;4913358;28;49773;-65
2022/12/11 11:32:31;;;;;;;;;25.50;23.50;;;;;4.01;79.31;100891.72;4913690;28;49717;-64
2022/12/11 11:35:11;;;;;;;;;26.75;23.00;;;;;4.02;79.39;100900.41;4922683;28;49721;-63
2022/12/11 11:37:39;;;;;;;;;34.00;28.75;;;;;4.07;79.25;100896.34;4914522;28;49792;-67
2022/12/11 11:40:18;;;;;;;;;20.25;16.75;;;;;4.16;79.12;100893.31;4913471;28;50872;-66
2022/12/11 11:42:59;;;;;;;;;29.75;26.50;;;;;4.15;78.19;100891.50;4913456;28;49808;-67
2022/12/11 11:45:30;;;;;;;;;26.75;26.00;;;;;4.11;78.11;100885.25;4913570;28;49816;-69
2022/12/11 11:48:33;;;;;;;;;33.75;29.75;;;;;4.09;78.36;100880.81;4913537;28;49674;-75
2022/12/11 11:51:06;;;;;;;;;31.75;29.75;;;;;3.73;78.04;100806.38;4911463;28;52054;-69
2022/12/11 11:53:39;;;;;;;;;31.25;30.00;;;;;4.21;77.82;100882.28;4913294;28;49651;-71
2022/12/11 11:56:16;;;;;;;;;29.00;28.50;;;;;4.22;77.53;100880.59;4913241;28;49852;-73
2022/12/11 11:58:49;;;;;;;;;27.25;24.50;;;;;4.20;76.86;100877.03;4912850;28;49682;-70
2022/12/11 12:01:16;;;;;;;;;34.75;28.25;;;;;4.19;77.38;100876.13;4900654;28;50570;-75
2022/12/11 12:03:42;;;;;;;;;27.00;25.75;;;;;4.23;77.66;100871.97;4900981;28;49688;-68
2022/12/11 12:06:28;;;;;;;;;38.50;30.25;;;;;4.25;76.46;100873.84;4894340;28;49928;-73
2022/12/11 15:53:26;;;;;;;;;62.33;46.33;;;;;0.73;100.00;100777.91;5061963;27;50048;-73
2022/12/11 15:55:52;;;;;;;;;60.75;45.75;;;;;0.59;100.00;100724.53;5078674;27;49885;-71
2022/12/11 15:58:22;;;;;;;;;56.75;45.00;;;;;0.21;100.00;100634.44;5047504;28;49745;-69
2022/12/11 16:00:47;;;;;;;;;50.75;42.25;;;;;0.77;100.00;100710.13;5045472;28;50388;-76
2022/12/11 16:03:15;;;;;;;;;46.25;41.50;;;;;0.24;100.00;100585.56;5047362;28;49805;-79
2022/12/11 16:05:41;;;;;;;;;51.50;45.50;;;;;1.31;100.00;100749.41;5047862;28;49954;-68
2022/12/11 16:08:11;;;;;;;;;55.00;43.75;;;;;1.31;100.00;100737.38;5050050;28;49696;-73
2022/12/11 16:10:36;;;;;;;;;57.25;41.75;;;;;1.51;100.00;100766.94;5045698;28;51010;-72
2022/12/11 16:13:02;;;;;;;;;59.00;47.00;;;;;1.46;100.00;100739.94;5049265;28;49714;-74
2022/12/11 16:15:27;;;;;;;;;52.00;43.00;;;;;0.50;100.00;100585.38;5043812;28;49892;-74
2022/12/11 16:18:08;;;;;;;;;60.67;47.00;;;;;1.71;100.00;100779.31;5048518;28;49877;-74
2022/12/11 16:20:34;;;;;;;;;56.00;46.67;;;;;1.46;99.11;100732.19;5048096;28;49629;-79
2022/12/11 16:23:00;;;;;;;;;51.67;44.33;;;;;1.56;98.71;100765.53;5050561;28;50968;-86
2022/12/11 16:25:29;;;;;;;;;53.33;47.00;;;;;1.84;98.84;100777.44;5049004;28;50060;-73
2022/12/11 16:28:00;;;;;;;;;51.00;41.25;;;;;1.88;97.85;100758.66;5053696;28;49991;-74
2022/12/11 16:30:27;;;;;;;;;56.67;46.33;;;;;1.88;97.39;100759.56;5045507;28;52374;-67
2022/12/11 16:32:53;;;;;;;;;47.67;41.00;;;;;1.80;97.43;100737.53;5046230;28;49951;-72
2022/12/11 16:35:19;;;;;;;;;49.25;38.25;;;;;1.41;96.69;100669.81;5039892;28;50208;-67
2022/12/11 16:37:50;;;;;;;;;53.00;47.33;;;;;1.96;95.89;100763.47;5046230;28;49756;-70
2022/12/11 16:40:16;;;;;;;;;55.67;43.33;;;;;1.99;96.52;100762.72;5056087;28;49863;-67
2022/12/11 16:42:42;;;;;;;;;62.33;49.00;;;;;1.81;95.39;100717.72;5058227;28;49724;-62
2022/12/11 16:45:12;;;;;;;;;63.67;48.00;;;;;2.01;95.69;100754.22;5052153;28;50070;-64
2022/12/11 16:47:37;;;;;;;;;58.67;46.33;;;;;1.90;95.56;100734.63;5045749;28;49900;-68
2022/12/11 16:50:03;;;;;;;;;62.67;49.33;;;;;1.98;95.86;100743.72;5053798;28;49905;-73
2022/12/11 16:52:30;;;;;;;;;68.33;51.67;;;;;2.02;95.78;100749.94;5059320;27;49930;-65
2022/12/11 16:54:56;;;;;;;;;60.33;50.67;;;;;2.00;97.21;100751.56;5046467;28;49799;-65
2022/12/11 16:57:22;;;;;;;;;59.67;49.33;;;;;1.63;97.84;100699.47;5050906;28;49774;-70
2022/12/11 16:59:47;;;;;;;;;60.67;49.67;;;;;1.97;99.04;100757.47;5044709;28;50995;-66
2022/12/11 17:02:13;;;;;;;;;57.50;46.75;;;;;1.55;99.42;100677.47;5052026;28;49679;-66
2022/12/11 17:04:39;;;;;;;;;64.00;51.67;;;;;1.93;99.55;100752.03;5041042;28;49906;-71
2022/12/11 17:07:05;;;;;;;;;64.00;49.00;;;;;1.82;99.94;100735.91;5049777;28;49469;-72
2022/12/11 17:09:31;;;;;;;;;60.00;49.00;;;;;1.34;100.00;100675.47;5038568;28;50039;-74
2022/12/11 17:11:57;;;;;;;;;60.00;48.00;;;;;1.64;100.00;100725.47;5049947;28;49646;-67
2022/12/11 17:14:22;;;;;;;;;71.00;55.67;;;;;1.85;100.00;100751.63;5043013;28;49678;-70
2022/12/11 17:16:48;;;;;;;;;70.00;53.00;;;;;1.82;100.00;100759.22;5036957;28;49765;-70
2022/12/11 17:19:14;;;;;;;;;58.67;49.00;;;;;1.83;100.00;100742.88;5048352;28;52041;-65
2022/12/11 17:21:40;;;;;;;;;57.33;45.33;;;;;1.67;100.00;100730.78;5050244;28;49514;-71
2022/12/11 17:24:06;;;;;;;;;69.67;55.33;;;;;1.57;100.00;100722.44;5050436;28;49489;-71
2022/12/11 17:26:33;;;;;;;;;62.00;47.00;;;;;1.62;100.00;100746.84;5045080;28;49788;-69
2022/12/11 17:28:58;;;;;;;;;65.33;52.00;;;;;1.43;100.00;100714.78;5039924;28;50094;-74
2022/12/11 17:31:23;;;;;;;;;64.00;49.33;;;;;1.67;100.00;100743.72;5040796;28;49779;-77
2022/12/11 17:33:49;;;;;;;;;61.67;51.33;;;;;1.60;100.00;100740.72;5050481;28;49688;-76
2022/12/11 17:36:17;;;;;;;;;57.00;48.67;;;;;1.72;100.00;100749.16;5049558;28;49418;-67
2022/12/11 17:38:43;;;;;;;;;75.67;55.33;;;;;1.67;100.00;100763.53;5046958;28;51174;-72
2022/12/11 17:41:10;;;;;;;;;65.33;48.00;;;;;1.76;100.00;100777.00;5041435;28;49677;-70
2022/12/11 17:43:35;;;;;;;;;58.67;48.33;;;;;1.53;100.00;100742.06;5048114;28;49754;-72
2022/12/11 17:46:01;;;;;;;;;68.67;55.67;;;;;1.65;100.00;100755.69;5036586;28;49844;-70
2022/12/11 17:48:27;;;;;;;;;61.67;50.33;;;;;1.65;100.00;100773.81;5038442;28;51700;-76
2022/12/11 17:50:52;;;;;;;;;63.00;46.33;;;;;1.16;100.00;100682.22;5041108;28;49878;-72
2022/12/11 17:53:19;;;;;;;;;66.33;55.00;;;;;1.68;100.00;100773.97;5060321;28;49788;-69
2022/12/11 17:55:46;;;;;;;;;61.00;51.33;;;;;1.50;100.00;100760.00;5062299;28;49979;-69
2022/12/11 17:58:14;;;;;;;;;64.33;51.67;;;;;1.49;100.00;100760.81;5052223;28;49797;-64
2022/12/11 18:00:41;;;;;;;;;70.67;52.67;;;;;1.63;100.00;100777.97;5057469;28;50735;-65
2022/12/11 18:03:07;;;;;;;;;69.33;55.33;;;;;1.59;100.00;100788.09;5052404;28;49748;-65
2022/12/11 18:05:33;;;;;;;;;60.33;50.33;;;;;1.50;100.00;100783.28;5054062;28;49944;-70
2022/12/11 18:07:59;;;;;;;;;67.00;54.67;;;;;1.49;100.00;100783.19;5033105;28;52505;-70
2022/12/11 18:10:24;;;;;;;;;66.00;50.33;;;;;1.46;100.00;100786.50;5058100;28;49696;-69
2022/12/11 18:12:49;;;;;;;;;67.00;48.00;;;;;1.17;100.00;100730.53;5057926;28;49852;-70
2022/12/11 18:15:17;;;;;;;;;70.33;52.67;;;;;1.33;100.00;100758.13;5050891;28;50115;-70
2022/12/11 18:17:43;;;;;;;;;65.00;49.67;;;;;1.25;100.00;100749.94;5052094;28;50951;-71
2022/12/11 18:20:10;;;;;;;;;63.67;52.33;;;;;1.46;100.00;100783.03;5027403;28;49687;-69
2022/12/11 18:22:35;;;;;;;;;66.00;53.00;;;;;1.41;100.00;100777.56;5061570;28;49801;-70
2022/12/11 18:25:01;;;;;;;;;70.67;53.33;;;;;1.43;100.00;100776.84;5065353;28;49853;-70
2022/12/11 18:27:27;;;;;;;;;70.33;52.33;;;;;1.17;100.00;100733.13;5056106;28;50069;-76
2022/12/11 18:29:52;;;;;;;;;61.33;47.00;;;;;1.44;100.00;100778.63;5034973;28;58102;-72
2022/12/11 18:32:17;;;;;;;;;61.33;51.00;;;;;1.44;100.00;100778.63;5051542;28;49868;-71
2022/12/11 18:34:42;;;;;;;;;65.00;53.33;;;;;1.43;100.00;100776.84;5032982;28;51392;-73
2022/12/11 18:37:08;;;;;;;;;61.33;48.67;;;;;1.37;100.00;100762.69;5033143;28;61418;-70
2022/12/11 18:39:33;;;;;;;;;64.33;50.00;;;;;1.45;100.00;100766.63;5051339;28;49886;-73
2022/12/11 18:41:59;;;;;;;;;48.33;45.67;;;;;1.45;100.00;100766.63;5051739;28;49035;-73
2022/12/11 18:44:24;;;;;;;;;76.33;55.33;;;;;1.33;100.00;100753.84;5051542;28;49692;-73
2022/12/11 18:46:50;;;;;;;;;71.00;57.67;;;;;1.47;100.00;100767.59;5051258;28;49722;-72
2022/12/11 18:49:15;;;;;;;;;64.33;51.33;;;;;1.11;100.00;100709.47;5050894;28;49740;-71
2022/12/11 18:51:41;;;;;;;;;64.33;51.33;;;;;1.41;100.00;100762.06;5050786;28;54789;-70
2022/12/11 18:54:08;;;;;;;;;73.00;54.33;;;;;1.28;100.00;100749.25;5051352;28;49709;-71
2022/12/11 18:56:34;;;;;;;;;64.33;51.33;;;;;1.49;100.00;100791.84;5032854;28;51567;-70
2022/12/11 18:58:59;;;;;;;;;77.67;52.67;;;;;1.49;100.00;100781.50;5032821;28;49828;-67
2022/12/11 19:01:27;;;;;;;;;64.00;50.33;;;;;1.08;100.00;100725.72;5032624;28;58645;-72
2022/12/11 19:03:56;;;;;;;;;65.67;52.67;;;;;1.04;100.00;100731.50;5032983;28;49843;-77
2022/12/11 19:06:24;;;;;;;;;69.00;53.33;;;;;1.45;100.00;100795.06;5050337;28;50582;-70
2022/12/11 19:08:49;;;;;;;;;66.00;50.33;;;;;1.38;100.00;100801.59;5051087;28;49838;-64
2022/12/11 19:11:18;;;;;;;;;55.33;47.33;;;;;1.39;100.00;100799.88;5051104;28;49955;-69
2022/12/11 19:13:44;;;;;;;;;72.33;50.33;;;;;1.15;100.00;100755.38;5051781;28;50002;-60
2022/12/11 19:16:18;;;;;;;;;65.00;49.00;;;;;1.27;100.00;100781.97;5050851;28;49893;-61
2022/12/11 19:18:44;;;;;;;;;62.67;51.00;;;;;1.33;100.00;100791.75;5051750;28;49900;-63
2022/12/11 19:21:14;;;;;;;;;52.33;44.33;;;;;0.97;100.00;100741.41;5051873;28;49764;-66
2022/12/11 19:23:40;;;;;;;;;65.33;49.67;;;;;1.25;100.00;100805.94;5052217;28;49729;-66
2022/12/11 19:26:14;;;;;;;;;54.67;47.00;;;;;0.97;100.00;100744.88;5050295;28;50251;-67
2022/12/11 19:28:43;;;;;;;;;54.67;47.00;;;;;0.79;100.00;100725.72;5050665;28;49918;-70
2022/12/11 19:31:15;;;;;;;;;60.33;49.67;;;;;-0.51;100.00;100492.47;5050964;28;49855;-66
2022/12/11 19:33:41;;;;;;;;;48.00;43.00;;;;;0.47;100.00;100673.00;5050954;28;49806;-65
2022/12/11 19:36:12;;;;;;;;;52.33;43.67;;;;;1.20;100.00;100797.94;5050431;28;50752;-64
2022/12/11 19:38:39;;;;;;;;;65.00;50.33;;;;;1.20;100.00;100794.44;5050497;28;49870;-65
2022/12/11 19:41:07;;;;;;;;;65.00;49.00;;;;;0.83;100.00;100727.66;5050550;28;49983;-68
2022/12/11 19:43:34;;;;;;;;;63.00;46.00;;;;;-0.30;100.00;100571.13;5050537;28;49851;-67
2022/12/11 19:46:04;;;;;;;;;53.33;44.67;;;;;1.01;100.00;100787.31;5050331;28;50734;-65
2022/12/11 19:48:30;;;;;;;;;54.00;47.00;;;;;1.09;100.00;100791.25;5050385;28;49796;-66
2022/12/11 19:50:56;;;;;;;;;67.33;47.67;;;;;0.64;100.00;100712.75;5050196;28;50013;-67
2022/12/11 19:53:21;;;;;;;;;66.00;51.33;;;;;0.14;100.00;100624.53;5050552;28;49730;-64
2022/12/11 19:55:51;;;;;;;;;56.00;43.67;;;;;0.64;100.00;100717.94;5050189;28;50539;-68
2022/12/11 19:58:18;;;;;;;;;55.00;44.00;;;;;0.79;100.00;100728.28;5050360;28;49768;-61
2022/12/11 20:00:43;;;;;;;;;70.67;54.33;;;;;0.96;100.00;100755.09;5050211;28;49866;-64
2022/12/11 20:03:08;;;;;;;;;62.67;47.67;;;;;1.08;100.00;100780.00;5050293;28;49863;-60
2022/12/11 20:05:34;;;;;;;;;60.00;47.67;;;;;1.06;100.00;100781.63;5049807;28;49618;-62
2022/12/11 20:07:59;;;;;;;;;61.00;48.00;;;;;1.03;100.00;100793.44;5050458;28;50059;-63
2022/12/11 20:10:26;;;;;;;;;55.33;43.33;;;;;1.03;100.00;100783.09;5031821;28;50327;-63
2022/12/11 20:12:55;;;;;;;;;44.33;38.00;;;;;0.88;100.00;100752.09;5050013;28;49950;-63
2022/12/11 20:15:21;;;;;;;;;57.33;45.67;;;;;0.98;100.00;100769.03;5049910;28;49652;-64
2022/12/11 20:17:47;;;;;;;;;60.00;47.33;;;;;1.03;100.00;100772.78;5049871;28;49646;-62
2022/12/11 20:20:12;;;;;;;;;63.33;50.00;;;;;1.04;100.00;100774.53;5049673;28;49721;-62
2022/12/11 20:22:38;;;;;;;;;62.33;50.33;;;;;1.01;100.00;100783.03;5050089;28;49922;-60
2022/12/11 20:25:03;;;;;;;;;55.67;48.33;;;;;0.94;100.00;100774.81;5049729;28;50714;-61
2022/12/11 20:27:29;;;;;;;;;57.33;47.33;;;;;0.85;100.00;100762.22;5049973;28;49625;-64
2022/12/11 20:29:54;;;;;;;;;56.00;47.33;;;;;0.93;100.00;100776.50;5049994;28;49795;-63
2022/12/11 20:32:19;;;;;;;;;67.00;47.00;;;;;0.90;100.00;100775.44;5050092;28;50018;-64
2022/12/11 20:34:45;;;;;;;;;48.67;43.33;;;;;0.86;100.00;100780.41;5049294;28;49802;-62
2022/12/11 20:37:11;;;;;;;;;61.67;48.33;;;;;0.79;100.00;100767.06;5049657;28;49704;-60
2022/12/11 20:39:36;;;;;;;;;60.67;50.00;;;;;0.66;100.00;100757.66;5034049;28;49858;-63
2022/12/11 20:42:03;;;;;;;;;36.67;27.00;;;;;0.82;100.00;100788.78;5053590;28;49753;-62
2022/12/11 20:44:29;;;;;;;;;69.67;53.67;;;;;0.68;100.00;100752.59;5052982;28;51593;-63
2022/12/11 20:46:55;;;;;;;;;62.33;50.33;;;;;0.38;100.00;100702.56;5053393;28;49606;-62
2022/12/11 20:49:20;;;;;;;;;64.33;48.00;;;;;0.99;100.00;100796.66;5052493;28;58833;-60
2022/12/11 20:51:45;;;;;;;;;73.00;53.33;;;;;0.94;100.00;100767.94;5052851;28;49796;-62
2022/12/11 20:54:11;;;;;;;;;47.67;44.00;;;;;0.62;100.00;100710.91;5052860;28;50573;-63
2022/12/11 20:56:37;;;;;;;;;57.33;44.33;;;;;0.86;100.00;100756.25;5052790;28;49809;-62
2022/12/11 20:59:03;;;;;;;;;61.00;45.00;;;;;0.99;100.00;100782.06;5052130;28;49807;-63
2022/12/11 21:01:30;;;;;;;;;57.00;45.00;;;;;0.96;100.00;100781.84;5053336;28;49937;-63
2022/12/11 21:03:57;;;;;;;;;46.33;43.33;;;;;1.01;100.00;100783.03;5052929;28;50169;-62
2022/12/11 21:06:29;;;;;;;;;47.00;39.00;;;;;1.00;100.00;100783.81;5052767;28;49901;-63
2022/12/11 21:08:56;;;;;;;;;73.00;55.33;;;;;0.55;100.00;100697.59;5047135;28;49791;-61
2022/12/11 21:11:22;;;;;;;;;52.33;43.00;;;;;1.04;100.00;100785.78;5052576;28;49842;-62
2022/12/11 21:13:50;;;;;;;;;46.00;40.75;;;;;0.89;100.00;100745.22;5052523;28;49864;-61
2022/12/11 21:16:16;;;;;;;;;46.25;45.00;;;;;0.88;100.00;100752.09;5052584;28;49621;-61
2022/12/11 21:18:43;;;;;;;;;52.50;43.50;;;;;1.14;100.00;100780.34;5052994;28;49976;-60
2022/12/11 21:21:09;;;;;;;;;50.00;44.67;;;;;0.92;100.00;100748.00;5052760;28;49773;-60
2022/12/11 21:23:35;;;;;;;;;57.67;47.00;;;;;1.13;100.00;100788.91;5052364;28;51275;-65
2022/12/11 21:26:00;;;;;;;;;51.33;44.67;;;;;1.19;100.00;100782.31;5052637;28;49899;-63
2022/12/11 21:28:26;;;;;;;;;61.00;49.00;;;;;1.21;100.00;100783.31;5052628;28;49807;-64
2022/12/11 21:30:51;;;;;;;;;62.67;46.67;;;;;0.73;100.00;100702.09;5034530;28;49967;-63
2022/12/11 21:33:16;;;;;;;;;55.33;46.00;;;;;1.09;100.00;100774.03;5052261;28;49725;-63
2022/12/11 21:35:42;;;;;;;;;60.33;46.33;;;;;1.10;100.00;100786.16;5051680;28;58944;-62
2022/12/11 21:38:07;;;;;;;;;50.00;46.33;;;;;1.15;100.00;100791.56;5052651;28;49745;-64
2022/12/11 21:40:33;;;;;;;;;56.00;45.67;;;;;0.98;100.00;100758.69;5034533;28;49850;-61
2022/12/11 21:42:58;;;;;;;;;51.00;47.00;;;;;1.05;100.00;100771.16;5034151;28;51364;-63
2022/12/11 21:45:23;;;;;;;;;63.33;50.00;;;;;1.15;100.00;100789.88;5052258;28;49679;-64
2022/12/11 21:47:49;;;;;;;;;56.00;44.00;;;;;0.56;100.00;100699.38;5051444;28;49874;-61
2022/12/11 21:50:15;;;;;;;;;52.00;44.67;;;;;1.11;100.00;100792.22;5033699;28;49924;-62
2022/12/11 21:52:43;;;;;;;;;47.67;40.00;;;;;0.99;100.00;100761.38;5051763;28;50119;-61
2022/12/11 21:55:11;;;;;;;;;58.33;46.33;;;;;1.09;100.00;100781.78;5052080;28;49822;-60
2022/12/11 21:57:36;;;;;;;;;60.00;47.33;;;;;0.87;100.00;100758.06;5052266;28;50262;-61
2022/12/11 22:00:03;;;;;;;;;60.33;44.67;;;;;1.12;100.00;100797.47;5034277;28;49828;-61
2022/12/11 22:02:28;;;;;;;;;56.00;46.67;;;;;1.07;100.00;100772.16;5051824;28;50856;-63
2022/12/11 22:04:54;;;;;;;;;54.75;45.25;;;;;1.10;100.00;100770.63;5051691;28;49851;-61
2022/12/11 22:07:19;;;;;;;;;61.67;50.00;;;;;1.30;100.00;100800.25;5053718;28;50185;-61
2022/12/11 22:09:44;;;;;;;;;64.33;47.33;;;;;0.95;100.00;100732.66;5052052;28;50508;-61
2022/12/11 22:12:21;;;;;;;;;64.00;48.33;;;;;1.14;100.00;100758.78;5051162;28;62216;-66
2022/12/11 22:14:47;;;;;;;;;53.50;44.50;;;;;1.40;100.00;100799.97;5048900;28;49835;-61
2022/12/11 22:17:12;;;;;;;;;65.00;48.33;;;;;1.36;100.00;100804.91;5052070;28;49685;-61
2022/12/11 22:19:37;;;;;;;;;64.33;46.33;;;;;1.35;100.00;100795.31;5035301;28;49971;-63
2022/12/11 22:22:03;;;;;;;;;52.67;45.33;;;;;1.43;100.00;100815.66;5048977;28;50519;-62
2022/12/11 22:24:28;;;;;;;;;52.33;43.67;;;;;1.13;100.00;100765.63;5050681;28;49704;-62
2022/12/11 22:26:53;;;;;;;;;59.00;49.00;;;;;1.30;100.00;100817.47;5050491;28;49795;-62
2022/12/11 22:29:18;;;;;;;;;57.50;46.25;;;;;1.19;100.00;100795.25;5050248;28;49926;-61
2022/12/11 22:31:44;;;;;;;;;57.67;47.00;;;;;1.37;100.00;100827.38;5035725;28;51577;-62
2022/12/11 22:34:09;;;;;;;;;53.00;45.75;;;;;1.37;100.00;100822.19;5033123;28;50062;-61
2022/12/11 22:36:35;;;;;;;;;55.00;42.50;;;;;1.32;100.00;100810.66;5051250;28;52535;-60
2022/12/11 22:39:01;;;;;;;;;43.50;39.00;;;;;1.37;100.00;100825.66;5051414;28;49804;-61
2022/12/11 22:41:29;;;;;;;;;50.50;42.25;;;;;1.35;100.00;100816.00;5051121;28;49897;-61
2022/12/11 22:43:56;;;;;;;;;55.50;44.25;;;;;1.32;100.00;100821.91;5051404;28;49761;-62
2022/12/11 22:46:24;;;;;;;;;45.75;40.75;;;;;0.82;100.00;100737.09;5051531;28;49614;-61
2022/12/11 22:48:50;;;;;;;;;48.50;40.50;;;;;1.10;100.00;100791.31;5051532;28;49841;-61
2022/12/11 22:51:15;;;;;;;;;53.50;43.25;;;;;1.25;100.00;100821.44;5050594;28;49998;-61
2022/12/11 22:53:40;;;;;;;;;52.50;44.50;;;;;0.89;100.00;100747.81;5051172;28;49803;-61
2022/12/11 22:56:07;;;;;;;;;55.50;37.50;;;;;1.10;100.00;100801.66;5051103;28;49863;-63
2022/12/11 22:58:33;;;;;;;;;46.50;42.50;;;;;1.30;100.00;100825.22;5051240;28;49906;-61
2022/12/11 23:00:59;;;;;;;;;49.00;42.25;;;;;1.25;100.00;100817.16;5050226;28;50525;-61
2022/12/11 23:03:24;;;;;;;;;38.50;34.50;;;;;1.25;100.00;100819.75;5051061;28;49729;-63
2022/12/11 23:05:50;;;;;;;;;52.50;42.50;;;;;1.31;100.00;100835.66;5050667;28;49695;-61
2022/12/11 23:08:15;;;;;;;;;55.25;41.75;;;;;1.31;100.00;100827.88;5050780;28;56633;-61
2022/12/11 23:10:41;;;;;;;;;60.50;43.50;;;;;1.23;100.00;100815.31;5050654;28;57196;-62
2022/12/11 23:13:07;;;;;;;;;44.75;42.25;;;;;1.08;100.00;100786.88;5051110;28;50001;-62
2022/12/11 23:15:32;;;;;;;;;55.25;42.75;;;;;1.13;100.00;100790.59;5016257;28;49715;-61
2022/12/11 23:17:57;;;;;;;;;51.00;43.00;;;;;1.18;100.00;100806.41;5050955;28;49866;-61
2022/12/11 23:20:24;;;;;;;;;56.75;38.25;;;;;0.87;100.00;100758.06;5050110;28;50423;-61
